createdAt,value
2023-04-02T00:00:05.724Z,91.83
2023-04-02T00:02:58.906Z,91.35
2023-04-02T00:05:30.581Z,91.46
2023-04-02T00:08:03.529Z,90.42
2023-04-02T00:10:39.025Z,90.58
2023-04-02T00:13:09.890Z,90.39
2023-04-02T00:15:43.946Z,89.88
2023-04-02T00:18:22.190Z,89.76
2023-04-02T00:21:07.696Z,89.77
2023-04-02T00:23:41.374Z,90.16
2023-04-02T00:26:38.514Z,90.21
2023-04-02T00:29:07.780Z,90.95
2023-04-02T00:31:41.019Z,91.40
2023-04-02T00:34:17.671Z,92.20
2023-04-02T00:36:46.935Z,93.51
2023-04-02T00:39:30.915Z,92.93
2023-04-02T00:42:06.223Z,93.26
2023-04-02T00:44:43.744Z,93.62
2023-04-02T00:47:22.964Z,93.68
2023-04-02T00:49:57.468Z,92.85
2023-04-02T00:52:29.569Z,93.09
2023-04-02T00:55:03.798Z,93.43
2023-04-02T00:57:33.690Z,93.88
2023-04-02T01:00:22.816Z,94.53
2023-04-02T01:03:13.279Z,96.00
2023-04-02T01:05:42.675Z,94.43
2023-04-02T01:08:28.647Z,94.46
2023-04-02T01:11:33.333Z,93.62
2023-04-02T01:14:07.679Z,93.17
2023-04-02T01:16:51.230Z,93.18
2023-04-02T01:19:19.603Z,93.83
2023-04-02T01:21:57.348Z,93.86
2023-04-02T01:24:31.857Z,94.16
2023-04-02T01:27:02.470Z,94.50
2023-04-02T01:29:36.053Z,95.06
2023-04-02T01:32:07.747Z,94.30
2023-04-02T01:34:36.535Z,92.80
2023-04-02T01:37:18.016Z,93.17
2023-04-02T01:39:52.530Z,92.73
2023-04-02T01:42:37.461Z,93.31
2023-04-02T01:45:11.186Z,93.22
2023-04-02T01:47:40.111Z,92.42
2023-04-02T01:50:20.570Z,92.58
2023-04-02T01:52:52.564Z,92.39
2023-04-02T01:55:52.603Z,91.81
2023-04-02T01:58:27.746Z,91.65
2023-04-02T02:01:02.352Z,91.38
2023-04-02T02:03:31.350Z,90.91
2023-04-02T02:05:59.968Z,90.95
2023-04-02T02:08:38.469Z,90.79
2023-04-02T02:11:14.800Z,92.20
2023-04-02T02:14:00.929Z,93.26
2023-04-02T02:16:32.142Z,92.76
2023-04-02T02:19:03.174Z,94.35
2023-04-02T02:21:43.683Z,94.84
2023-04-02T02:24:27.854Z,95.46
2023-04-02T02:27:24.392Z,95.78
2023-04-02T02:29:54.638Z,96.99
2023-04-02T02:32:27.550Z,97.76
2023-04-02T02:35:06.669Z,97.60
2023-04-02T02:37:43.503Z,97.26
2023-04-02T02:40:20.766Z,97.77
2023-04-02T02:42:54.674Z,98.29
2023-04-02T02:45:28.027Z,98.81
2023-04-02T02:47:57.473Z,99.55
2023-04-02T02:50:32.700Z,99.28
2023-04-02T02:53:06.414Z,100.00
2023-04-02T02:55:37.458Z,100.00
2023-04-02T02:58:11.582Z,100.00
2023-04-02T03:00:41.123Z,99.89
2023-04-02T03:03:15.044Z,99.04
2023-04-02T03:05:44.780Z,98.02
2023-04-02T03:08:37.206Z,98.50
2023-04-02T03:11:06.488Z,97.98
2023-04-02T03:13:39.055Z,98.52
2023-04-02T03:16:27.290Z,99.25
2023-04-02T03:19:05.961Z,98.82
2023-04-02T03:21:39.566Z,99.48
2023-04-02T03:24:28.446Z,99.02
2023-04-02T03:27:03.423Z,98.46
2023-04-02T03:29:36.708Z,98.88
2023-04-02T03:32:21.078Z,98.77
2023-04-02T03:35:38.980Z,98.71
2023-04-02T03:38:18.846Z,98.56
2023-04-02T03:41:00.866Z,98.30
2023-04-02T03:43:46.535Z,98.76
2023-04-02T03:46:50.006Z,98.50
2023-04-02T03:49:31.457Z,98.12
2023-04-02T03:52:05.358Z,97.62
2023-04-02T03:54:34.068Z,98.12
2023-04-02T03:57:02.124Z,98.00
2023-04-02T03:59:54.589Z,98.08
2023-04-02T04:02:26.898Z,97.53
2023-04-02T04:04:56.979Z,97.23
2023-04-02T04:07:44.622Z,97.90
2023-04-02T04:10:20.485Z,98.35
2023-04-02T04:12:50.782Z,97.65
2023-04-02T04:15:46.466Z,97.53
2023-04-02T04:18:34.874Z,95.86
2023-04-02T04:21:15.693Z,94.10
2023-04-02T04:23:50.573Z,93.42
2023-04-02T04:27:09.731Z,93.38
2023-04-02T04:29:49.402Z,93.37
2023-04-02T04:32:33.945Z,91.76
2023-04-02T04:35:24.062Z,92.45
2023-04-02T04:38:03.998Z,93.14
2023-04-02T04:40:36.361Z,91.30
2023-04-02T04:43:11.240Z,90.83
2023-04-02T04:45:51.856Z,91.81
2023-04-02T04:49:02.333Z,91.65
2023-04-02T04:51:48.225Z,91.63
2023-04-02T04:54:17.436Z,91.63
2023-04-02T04:56:57.873Z,91.50
2023-04-02T04:59:36.150Z,91.17
2023-04-02T05:02:36.566Z,91.63
2023-04-02T05:05:18.833Z,90.94
2023-04-02T05:07:53.651Z,90.95
2023-04-02T05:10:27.758Z,91.17
2023-04-02T05:13:14.371Z,91.73
2023-04-02T05:15:53.378Z,91.90
2023-04-02T05:18:35.028Z,93.36
2023-04-02T05:21:24.229Z,95.11
2023-04-02T05:24:00.375Z,93.26
2023-04-02T05:26:43.206Z,94.04
2023-04-02T05:29:25.955Z,94.44
2023-04-02T05:32:16.107Z,94.11
2023-04-02T05:34:50.804Z,95.57
2023-04-02T05:37:25.121Z,93.62
2023-04-02T05:39:57.220Z,92.65
2023-04-02T05:42:34.399Z,91.73
2023-04-02T05:45:32.625Z,90.67
2023-04-02T05:48:07.490Z,88.14
2023-04-02T05:50:40.533Z,87.09
2023-04-02T05:53:15.301Z,83.30
2023-04-02T05:56:01.713Z,80.62
2023-04-02T05:58:40.596Z,82.66
2023-04-02T06:01:17.638Z,82.90
2023-04-02T06:03:57.567Z,83.33
2023-04-02T06:06:28.505Z,82.91
2023-04-02T06:09:28.828Z,82.54
2023-04-02T06:12:12.462Z,81.99
2023-04-02T06:14:41.279Z,80.37
2023-04-02T06:17:16.067Z,79.41
2023-04-02T06:19:46.161Z,77.45
2023-04-02T06:22:35.762Z,77.59
2023-04-02T06:25:35.643Z,77.39
2023-04-02T06:28:06.777Z,74.15
2023-04-02T06:30:41.478Z,74.67
2023-04-02T06:33:12.557Z,74.83
2023-04-02T06:35:46.731Z,74.30
2023-04-02T06:38:21.755Z,74.11
2023-04-02T06:41:08.585Z,74.71
2023-04-02T06:43:47.516Z,74.26
2023-04-02T06:46:32.989Z,75.33
2023-04-02T06:49:15.822Z,75.00
2023-04-02T06:51:46.086Z,76.28
2023-04-02T06:54:18.908Z,74.85
2023-04-02T06:56:51.532Z,76.02
2023-04-02T06:59:20.558Z,75.91
2023-04-02T07:01:51.601Z,74.16
2023-04-02T07:04:21.370Z,75.27
2023-04-02T07:06:51.335Z,73.65
2023-04-02T07:09:19.950Z,74.24
2023-04-02T07:11:48.574Z,73.01
2023-04-02T07:14:18.343Z,73.27
2023-04-02T07:16:46.454Z,71.53
2023-04-02T07:19:22.849Z,72.93
2023-04-02T07:21:51.666Z,72.58
2023-04-02T07:24:20.653Z,73.09
2023-04-02T07:26:48.571Z,73.77
2023-04-02T07:29:17.943Z,71.41
2023-04-02T07:31:45.795Z,71.31
2023-04-02T07:34:13.760Z,70.88
2023-04-02T07:36:41.905Z,71.30
2023-04-02T07:39:10.189Z,71.13
2023-04-02T07:42:10.851Z,71.41
2023-04-02T07:44:55.569Z,72.50
2023-04-02T07:47:25.022Z,69.81
2023-04-02T07:50:14.255Z,67.51
2023-04-02T07:52:42.783Z,65.66
2023-04-02T07:55:12.937Z,65.05
2023-04-02T07:57:48.797Z,64.22
2023-04-02T08:00:18.163Z,61.63
2023-04-02T08:02:47.557Z,62.07
2023-04-02T08:05:15.738Z,61.57
2023-04-02T08:07:44.677Z,61.60
2023-04-02T08:10:13.096Z,65.50
2023-04-02T08:12:41.126Z,62.30
2023-04-02T08:15:14.091Z,62.21
2023-04-02T08:17:43.503Z,66.72
2023-04-02T08:20:20.425Z,66.15
2023-04-02T08:22:49.859Z,63.75
2023-04-02T08:25:17.948Z,62.62
2023-04-02T08:27:48.903Z,62.05
2023-04-02T08:30:18.288Z,61.89
2023-04-02T08:32:46.495Z,60.04
2023-04-02T08:35:16.945Z,62.63
2023-04-02T08:37:45.204Z,57.21
2023-04-02T08:40:25.864Z,52.83
2023-04-02T08:43:15.366Z,49.13
2023-04-02T08:45:46.271Z,48.35
2023-04-02T08:48:15.686Z,46.49
2023-04-02T08:50:45.013Z,44.44
2023-04-02T08:53:29.678Z,46.46
2023-04-02T08:56:13.175Z,51.97
2023-04-02T08:58:43.431Z,53.02
2023-04-02T09:01:37.372Z,50.06
2023-04-02T09:04:14.514Z,50.29
2023-04-02T09:06:44.046Z,49.57
2023-04-02T09:09:14.596Z,50.21
2023-04-02T09:11:52.764Z,56.96
2023-04-02T09:14:28.553Z,54.81
2023-04-02T09:17:02.190Z,57.03
2023-04-02T09:19:39.197Z,52.05
2023-04-02T09:22:22.801Z,52.81
2023-04-02T09:25:14.381Z,56.38
2023-04-02T09:27:42.705Z,62.45
2023-04-02T09:30:30.174Z,61.48
2023-04-02T09:33:07.774Z,63.02
2023-04-02T09:35:53.319Z,62.34
2023-04-02T09:38:29.129Z,62.29
2023-04-02T09:41:40.186Z,61.33
2023-04-02T09:44:30.445Z,61.55
2023-04-02T09:47:07.714Z,64.82
2023-04-02T09:49:38.816Z,61.65
2023-04-02T09:52:17.856Z,63.33
2023-04-02T09:54:47.799Z,60.39
2023-04-02T09:57:25.130Z,63.18
2023-04-02T10:00:31.354Z,63.01
2023-04-02T10:03:02.891Z,59.02
2023-04-02T10:05:40.454Z,63.51
2023-04-02T10:08:24.946Z,60.15
2023-04-02T10:10:57.038Z,61.79
2023-04-02T10:14:06.979Z,59.83
2023-04-02T10:16:51.737Z,59.99
2023-04-02T10:19:22.864Z,62.07
2023-04-02T10:21:55.248Z,62.06
2023-04-02T10:24:23.812Z,61.74
2023-04-02T10:26:59.466Z,61.44
2023-04-02T10:29:51.629Z,59.02
2023-04-02T10:32:31.511Z,58.90
2023-04-02T10:35:09.033Z,60.94
2023-04-02T10:37:45.936Z,59.42
2023-04-02T10:40:42.635Z,60.32
2023-04-02T10:43:33.925Z,61.53
2023-04-02T10:46:04.959Z,62.23
2023-04-02T10:48:43.195Z,63.03
2023-04-02T10:51:28.998Z,62.73
2023-04-02T10:54:14.191Z,62.88
2023-04-02T10:56:50.662Z,61.92
2023-04-02T10:59:28.061Z,59.37
2023-04-02T11:01:59.351Z,61.64
2023-04-02T11:04:41.904Z,60.62
2023-04-02T11:07:20.956Z,60.17
2023-04-02T11:09:52.403Z,60.60
2023-04-02T11:12:23.154Z,62.79
2023-04-02T11:14:52.574Z,62.75
2023-04-02T11:17:22.442Z,64.83
2023-04-02T11:19:50.471Z,64.80
2023-04-02T11:32:27.331Z,70.72
2023-04-02T11:35:05.198Z,72.57
2023-04-02T11:37:38.683Z,71.15
2023-04-02T11:40:42.338Z,71.56
2023-04-02T11:43:36.074Z,70.78
2023-04-02T11:46:16.732Z,71.31
2023-04-02T11:48:44.602Z,69.27
2023-04-02T11:51:22.669Z,68.36
2023-04-02T11:53:55.078Z,68.04
2023-04-02T11:56:46.011Z,68.25
2023-04-02T11:59:24.287Z,66.62
2023-04-02T12:02:11.446Z,67.63
2023-04-02T12:04:48.894Z,64.65
2023-04-02T12:07:46.762Z,64.54
2023-04-02T12:10:34.550Z,64.54
2023-04-02T12:13:02.480Z,65.67
2023-04-02T12:15:33.207Z,66.77
2023-04-02T12:18:21.728Z,67.27
2023-04-02T12:20:53.594Z,66.83
2023-04-02T12:23:33.805Z,67.03
2023-04-02T12:26:23.381Z,64.83
2023-04-02T12:28:51.495Z,66.10
2023-04-02T12:31:25.374Z,65.46
2023-04-02T12:33:53.547Z,65.04
2023-04-02T12:36:23.745Z,66.72
2023-04-02T12:38:58.719Z,67.80
2023-04-02T12:41:33.483Z,67.95
2023-04-02T12:44:02.659Z,68.42
2023-04-02T12:46:32.948Z,66.96
2023-04-02T12:49:10.240Z,63.02
2023-04-02T12:51:39.400Z,61.39
2023-04-02T12:54:07.395Z,62.68
2023-04-02T12:56:35.815Z,63.22
2023-04-02T12:59:03.967Z,64.73
2023-04-02T13:01:32.429Z,63.60
2023-04-02T13:04:08.966Z,64.54
2023-04-02T13:06:37.652Z,62.48
2023-04-02T13:09:28.034Z,61.41
2023-04-02T13:11:57.850Z,62.83
2023-04-02T13:14:27.070Z,60.83
2023-04-02T13:16:55.874Z,60.38
2023-04-02T13:19:31.980Z,57.88
2023-04-02T13:22:03.092Z,59.26
2023-04-02T13:24:33.117Z,58.19
2023-04-02T13:27:02.969Z,60.55
2023-04-02T13:29:36.471Z,59.54
2023-04-02T13:32:08.025Z,62.80
2023-04-02T13:34:36.275Z,62.43
2023-04-02T13:37:04.158Z,63.70
2023-04-02T13:39:32.203Z,64.53
2023-04-02T13:42:03.810Z,65.61
2023-04-02T13:44:34.146Z,67.61
2023-04-02T13:47:04.259Z,68.99
2023-04-02T13:49:34.632Z,68.39
2023-04-02T13:52:45.225Z,70.17
2023-04-02T13:55:18.841Z,70.04
2023-04-02T14:01:43.807Z,69.76
2023-04-02T14:04:19.005Z,69.87
2023-04-02T14:07:18.269Z,70.54
2023-04-02T14:10:10.668Z,68.78
2023-04-02T14:12:57.606Z,66.74
2023-04-02T14:16:18.028Z,70.10
2023-04-02T14:19:23.380Z,72.09
2023-04-02T14:22:05.093Z,71.38
2023-04-02T14:24:53.082Z,70.77
2023-04-02T14:27:40.136Z,70.73
2023-04-02T14:30:29.799Z,69.98
2023-04-02T14:33:07.101Z,69.96
2023-04-02T14:35:44.542Z,70.84
2023-04-02T14:38:42.214Z,68.97
2023-04-02T14:41:18.040Z,69.86
2023-04-02T14:43:53.526Z,69.25
2023-04-02T14:46:26.842Z,69.78
2023-04-02T14:49:02.088Z,70.58
2023-04-02T14:51:40.956Z,69.57
2023-04-02T14:54:30.915Z,68.85
2023-04-02T14:57:12.844Z,69.74
2023-04-02T15:00:02.251Z,69.49
2023-04-02T15:02:56.509Z,69.68
2023-04-02T15:06:04.780Z,67.67
2023-04-02T15:09:08.819Z,67.34
2023-04-02T15:11:53.004Z,70.23
2023-04-02T15:14:31.853Z,71.32
2023-04-02T15:17:00.132Z,70.58
2023-04-02T15:19:27.931Z,70.06
2023-04-02T15:22:14.049Z,71.97
2023-04-02T15:24:53.156Z,75.52
2023-04-02T15:27:31.668Z,77.74
2023-04-02T15:30:09.610Z,79.60
2023-04-02T15:32:42.879Z,81.21
2023-04-02T15:35:20.514Z,82.04
2023-04-02T15:38:10.704Z,80.78
2023-04-02T15:41:08.779Z,80.60
2023-04-02T15:43:54.741Z,82.05
2023-04-02T15:46:36.718Z,82.68
2023-04-02T15:49:16.730Z,81.20
2023-04-02T15:51:50.689Z,79.97
2023-04-02T15:54:44.413Z,79.82
2023-04-02T15:57:15.490Z,82.09
2023-04-02T16:00:02.522Z,82.53
2023-04-02T16:03:17.488Z,82.87
2023-04-02T16:06:16.965Z,84.33
2023-04-02T16:09:10.208Z,85.13
2023-04-02T16:11:39.688Z,86.26
2023-04-02T16:14:30.669Z,87.05
2023-04-02T16:17:17.461Z,87.21
2023-04-02T16:19:56.479Z,87.46
2023-04-02T16:22:28.441Z,88.40
2023-04-02T16:25:01.737Z,89.71
2023-04-02T16:27:37.800Z,89.15
2023-04-02T16:30:50.135Z,89.54
2023-04-02T16:33:32.994Z,90.60
2023-04-02T16:36:22.219Z,91.63
2023-04-02T16:38:56.224Z,91.57
2023-04-02T16:41:50.986Z,91.52
2023-04-02T16:44:43.457Z,91.18
2023-04-02T16:47:42.208Z,89.83
2023-04-02T16:50:27.519Z,89.18
2023-04-02T16:53:05.413Z,86.90
2023-04-02T16:56:11.974Z,86.96
2023-04-02T16:59:23.237Z,86.45
2023-04-02T17:02:11.899Z,85.90
2023-04-02T17:05:26.018Z,85.54
2023-04-02T17:08:08.188Z,86.44
2023-04-02T17:10:38.959Z,86.55
2023-04-02T17:13:52.594Z,86.36
2023-04-02T17:16:28.866Z,86.85
2023-04-02T17:18:58.489Z,86.60
2023-04-02T17:21:28.789Z,87.25
2023-04-02T17:24:11.305Z,86.95
2023-04-02T17:26:43.464Z,88.27
2023-04-02T17:29:18.567Z,88.61
2023-04-02T17:31:47.724Z,88.81
2023-04-02T17:34:18.318Z,88.88
2023-04-02T17:36:46.779Z,88.93
2023-04-02T17:39:18.136Z,89.65
2023-04-02T17:42:08.326Z,90.41
2023-04-02T17:44:51.763Z,90.69
2023-04-02T17:47:39.116Z,88.50
2023-04-02T17:50:33.234Z,88.57
2023-04-02T17:53:22.817Z,86.92
2023-04-02T17:55:56.715Z,86.55
2023-04-02T17:58:30.867Z,82.79
2023-04-02T18:01:36.644Z,81.05
2023-04-02T18:04:17.288Z,80.61
2023-04-02T18:06:48.042Z,79.11
2023-04-02T18:09:25.703Z,78.50
2023-04-02T18:12:39.731Z,79.61
2023-04-02T18:15:19.942Z,79.53
2023-04-02T18:18:25.524Z,80.33
2023-04-02T18:21:15.783Z,80.00
2023-04-02T18:24:08.164Z,80.60
2023-04-02T18:26:39.633Z,80.70
2023-04-02T18:29:19.879Z,82.36
2023-04-02T18:32:01.360Z,81.74
2023-04-02T18:34:50.871Z,82.69
2023-04-02T18:37:28.874Z,82.32
2023-04-02T18:40:06.251Z,81.84
2023-04-02T18:43:08.459Z,82.62
2023-04-02T18:46:01.756Z,82.28
2023-04-02T18:49:07.807Z,81.91
2023-04-02T18:51:39.368Z,81.22
2023-04-02T18:54:11.019Z,82.28
2023-04-02T18:56:40.603Z,81.95
2023-04-02T18:59:17.603Z,82.00
2023-04-02T19:01:51.491Z,82.56
2023-04-02T19:04:30.871Z,82.24
2023-04-02T19:07:12.388Z,82.98
2023-04-02T19:09:44.846Z,81.97
2023-04-02T19:12:22.256Z,82.02
2023-04-02T19:14:52.512Z,81.53
2023-04-02T19:17:50.512Z,82.12
2023-04-02T19:20:31.602Z,82.04
2023-04-02T19:23:49.669Z,81.71
2023-04-02T19:34:21.489Z,82.56
2023-04-02T19:37:05.113Z,82.49
2023-04-02T19:40:13.347Z,82.27
2023-04-02T19:42:55.519Z,82.30
2023-04-02T19:45:29.859Z,81.76
2023-04-02T19:48:01.952Z,82.24
2023-04-02T19:50:30.234Z,81.40
2023-04-02T19:52:59.307Z,81.83
2023-04-02T19:55:48.044Z,81.35
2023-04-02T19:58:31.810Z,81.19
2023-04-02T20:01:00.746Z,81.21
2023-04-02T20:03:30.416Z,81.05
2023-04-02T20:05:59.950Z,81.57
2023-04-02T20:08:29.043Z,81.38
2023-04-02T20:11:06.393Z,81.22
2023-04-02T20:13:38.648Z,81.56
2023-04-02T20:16:07.874Z,81.68
2023-04-02T20:18:37.590Z,82.29
2023-04-02T20:21:07.250Z,82.45
2023-04-02T20:23:36.352Z,81.88
2023-04-02T20:26:09.109Z,82.52
2023-04-02T20:28:37.459Z,82.28
2023-04-02T20:31:14.036Z,82.48
2023-04-02T20:33:44.515Z,83.09
2023-04-02T20:36:16.399Z,82.45
2023-04-02T20:38:45.873Z,83.19
2023-04-02T20:41:16.249Z,82.50
2023-04-02T20:44:15.200Z,83.11
2023-04-02T20:46:46.377Z,82.35
2023-04-02T20:49:15.091Z,83.39
2023-04-02T20:51:51.211Z,83.95
2023-04-02T20:54:34.681Z,83.64
2023-04-02T20:57:16.715Z,83.65
2023-04-02T20:59:44.734Z,83.19
2023-04-02T21:02:16.402Z,82.77
2023-04-02T21:05:37.513Z,82.85
2023-04-02T21:22:03.577Z,81.67
2023-04-02T21:27:29.923Z,81.54
2023-04-02T21:29:58.090Z,81.22
2023-04-02T21:36:34.458Z,81.42
2023-04-02T21:50:05.894Z,79.55
2023-04-02T21:52:34.066Z,79.87
2023-04-02T21:55:01.970Z,79.86
2023-04-02T21:57:29.888Z,80.23
2023-04-02T21:59:58.130Z,79.77
2023-04-02T22:02:26.089Z,78.61
2023-04-02T22:04:54.338Z,78.65
2023-04-02T22:07:22.198Z,79.13
2023-04-02T22:09:50.076Z,79.19
2023-04-02T22:12:18.188Z,78.78
2023-04-02T22:14:46.110Z,78.17
2023-04-02T22:17:13.943Z,78.12
2023-04-02T22:19:42.115Z,77.33
2023-04-02T22:22:10.217Z,76.25
2023-04-02T22:24:37.997Z,76.86
2023-04-02T22:27:06.226Z,76.44
2023-04-02T22:29:34.357Z,76.11
2023-04-02T22:32:02.462Z,75.51
2023-04-02T22:34:30.704Z,75.45
2023-04-02T22:37:10.218Z,76.21
2023-04-02T22:39:38.482Z,76.30
2023-04-02T22:42:06.386Z,76.41
2023-04-02T22:44:34.278Z,76.08
2023-04-02T22:47:02.446Z,75.70
2023-04-02T22:49:30.333Z,75.90
2023-04-02T22:52:35.663Z,75.85
2023-04-02T22:55:03.905Z,76.65
2023-04-02T22:57:36.046Z,76.48
2023-04-02T23:00:12.900Z,76.25
2023-04-02T23:02:41.414Z,76.03
2023-04-02T23:05:11.044Z,76.18
2023-04-02T23:07:39.143Z,75.71
2023-04-02T23:10:07.450Z,76.11
2023-04-02T23:12:35.561Z,75.43
2023-04-02T23:15:05.607Z,76.13
2023-04-02T23:17:33.530Z,76.11
2023-04-02T23:20:01.890Z,75.92
2023-04-02T23:22:29.799Z,75.71
2023-04-02T23:24:57.677Z,75.43
2023-04-02T23:27:25.978Z,75.63
2023-04-02T23:29:53.784Z,76.12
2023-04-02T23:32:21.696Z,76.69
2023-04-02T23:34:50.727Z,75.93
2023-04-02T23:37:18.547Z,75.44
2023-04-02T23:39:46.435Z,75.84
2023-04-02T23:42:14.672Z,75.63
2023-04-02T23:44:42.589Z,75.75
2023-04-02T23:47:10.583Z,76.05
2023-04-02T23:49:39.050Z,75.39
2023-04-02T23:52:06.932Z,75.09
2023-04-02T23:54:34.791Z,76.52
2023-04-02T23:57:02.941Z,76.04
2023-04-02T23:59:31.027Z,75.71
